This is the latest recevied weather packets stored in our database for station/object GW1491. If no packets are shown the sender has not sent any weather packets the latest 10 day(s).
| Time | Temp. | Humidity | Pressure | Rain* | Wind** | Luminosity | Snow |
|---|---|---|---|---|---|---|---|
| 1777380158 | 12.78° C | 99% | 1013.8 hPa | 22.1 mm | - | - | - |
| 1777379789 | 12.78° C | 99% | 1014.2 hPa | 22.1 mm | - | - | - |
| 1777379443 | 12.78° C | 99% | 1013.8 hPa | 22.1 mm | - | - | - |
| 1777377651 | 12.22° C | 99% | 1013.8 hPa | 22.1 mm | - | - | - |
| 1777376930 | 12.22° C | 99% | 1013.8 hPa | 22.1 mm | - | - | - |
| 1777374051 | 11.67° C | 99% | 1013.2 hPa | 22.1 mm | - | - | - |
| 1777373323 | 11.67° C | 99% | 1012.5 hPa | 22.1 mm | - | - | - |
| 1777371886 | 11.11° C | 99% | 1012.1 hPa | 22.1 mm | - | - | - |
| 1777371509 | 11.11° C | 99% | 1012.1 hPa | 22.1 mm | - | - | - |
| 1777367892 | 11.67° C | 99% | 1009.8 hPa | 22.1 mm | - | - | - |
| 1777366827 | 11.67° C | 99% | 1013.8 hPa | 21.84 mm | - | - | - |
| 1777366464 | 11.67° C | 99% | 1014.5 hPa | 21.59 mm | - | - | - |
| 1777365750 | 12.22° C | 99% | 1014.9 hPa | 21.08 mm | - | - | - |
| 1777363960 | 12.22° C | 99% | 1015.2 hPa | 17.53 mm | - | - | - |
| 1777361787 | 12.22° C | 99% | 1013.8 hPa | 11.43 mm | - | - | - |
| 1777360346 | 12.78° C | 99% | 1014.2 hPa | 7.11 mm | - | - | - |
| 1777356025 | 13.33° C | 98% | 1013.2 hPa | 3.56 mm | - | - | - |
| 1777350613 | 14.44° C | 94% | 1016.2 hPa | 1.52 mm | - | - | - |
| 1777349561 | 15° C | 91% | 1015.9 hPa | 0.51 mm | - | - | - |
| 1777348489 | 17.22° C | 76% | 1015.5 hPa | 0.25 mm | - | - | - |
| 1777347395 | 20° C | 60% | 1014.9 hPa | 0 mm | - | - | - |
| 1777346688 | 20° C | 56% | 1014.9 hPa | 0 mm | - | - | - |
| 1777343791 | 20.56° C | 54% | 1015.5 hPa | 0 mm | - | - | - |
| 1777340930 | 20.56° C | 55% | 1015.2 hPa | 0 mm | - | - | - |
| 1777340547 | 21.11° C | 54% | 1015.2 hPa | 0 mm | - | - | - |
* Rain since midnight (hover to see other rain measurements)
** Current wind speed in m/s (hover to see current wind gust speed)